sensor_id;sensor_type;location;lat;lon;timestamp;pressure;altitude;pressure_sealevel;temperature;humidity
48517;BME280;34310;51.904;4.256;2023-10-13T00:02:25;101178.72;;;21.22;62.64
48517;BME280;34310;51.904;4.256;2023-10-13T00:04:52;101181.34;;;21.22;62.92
48517;BME280;34310;51.904;4.256;2023-10-13T00:07:18;101175.22;;;21.22;62.95
48517;BME280;34310;51.904;4.256;2023-10-13T00:09:45;101181.34;;;21.22;62.96
48517;BME280;34310;51.904;4.256;2023-10-13T00:12:11;101179.56;;;21.21;62.63
48517;BME280;34310;51.904;4.256;2023-10-13T00:14:38;101165.56;;;21.21;62.84
48517;BME280;34310;51.904;4.256;2023-10-13T00:17:06;101162.88;;;21.19;62.80
48517;BME280;34310;51.904;4.256;2023-10-13T00:19:37;101174.31;;;21.21;62.99
48517;BME280;34310;51.904;4.256;2023-10-13T00:22:06;101169.91;;;21.20;62.82
48517;BME280;34310;51.904;4.256;2023-10-13T00:24:33;101168.19;;;21.21;62.95
48517;BME280;34310;51.904;4.256;2023-10-13T00:26:59;101154.94;;;21.18;62.83
48517;BME280;34310;51.904;4.256;2023-10-13T00:29:26;101154.94;;;21.18;62.77
48517;BME280;34310;51.904;4.256;2023-10-13T00:31:52;101161.16;;;21.20;62.58
48517;BME280;34310;51.904;4.256;2023-10-13T00:34:19;101153.16;;;21.17;62.56
48517;BME280;34310;51.904;4.256;2023-10-13T00:36:46;101148.84;;;21.19;62.96
48517;BME280;34310;51.904;4.256;2023-10-13T00:39:12;101140.94;;;21.17;62.62
48517;BME280;34310;51.904;4.256;2023-10-13T00:41:39;101141.81;;;21.18;62.76
48517;BME280;34310;51.904;4.256;2023-10-13T00:44:05;101137.41;;;21.17;62.63
48517;BME280;34310;51.904;4.256;2023-10-13T00:46:35;101139.19;;;21.18;62.58
48517;BME280;34310;51.904;4.256;2023-10-13T00:49:03;101137.41;;;21.17;62.76
48517;BME280;34310;51.904;4.256;2023-10-13T00:51:31;101130.38;;;21.16;62.81
48517;BME280;34310;51.904;4.256;2023-10-13T00:54:02;101112.84;;;21.15;62.86
48517;BME280;34310;51.904;4.256;2023-10-13T00:56:29;101123.41;;;21.16;62.87
48517;BME280;34310;51.904;4.256;2023-10-13T00:58:55;101112.00;;;21.16;62.59
48517;BME280;34310;51.904;4.256;2023-10-13T01:01:25;101114.63;;;21.16;62.90
48517;BME280;34310;51.904;4.256;2023-10-13T01:03:53;101111.94;;;21.14;62.65
48517;BME280;34310;51.904;4.256;2023-10-13T01:06:19;101103.22;;;21.15;62.76
48517;BME280;34310;51.904;4.256;2023-10-13T01:08:47;101103.19;;;21.14;62.59
48517;BME280;34310;51.904;4.256;2023-10-13T01:11:14;101104.91;;;21.13;62.89
48517;BME280;34310;51.904;4.256;2023-10-13T01:13:40;101100.56;;;21.14;62.89
48517;BME280;34310;51.904;4.256;2023-10-13T01:16:07;101088.28;;;21.13;63.00
48517;BME280;34310;51.904;4.256;2023-10-13T01:18:34;101087.34;;;21.11;62.88
48517;BME280;34310;51.904;4.256;2023-10-13T01:21:04;101088.28;;;21.13;63.00
48517;BME280;34310;51.904;4.256;2023-10-13T01:23:31;101083.78;;;21.10;62.64
48517;BME280;34310;51.904;4.256;2023-10-13T01:25:57;101075.09;;;21.11;62.70
48517;BME280;34310;51.904;4.256;2023-10-13T01:28:24;101080.41;;;21.13;62.68
48517;BME280;34310;51.904;4.256;2023-10-13T01:30:50;101075.91;;;21.10;62.94
48517;BME280;34310;51.904;4.256;2023-10-13T01:33:18;101079.47;;;21.11;62.88
48517;BME280;34310;51.904;4.256;2023-10-13T01:35:44;101076.00;;;21.12;62.59
48517;BME280;34310;51.904;4.256;2023-10-13T01:38:11;101080.34;;;21.11;62.98
48517;BME280;34310;51.904;4.256;2023-10-13T01:40:37;101076.84;;;21.11;62.76
48517;BME280;34310;51.904;4.256;2023-10-13T01:43:04;101069.78;;;21.10;62.81
48517;BME280;34310;51.904;4.256;2023-10-13T01:45:30;101058.38;;;21.09;63.06
48517;BME280;34310;51.904;4.256;2023-10-13T01:47:57;101053.13;;;21.09;62.70
48517;BME280;34310;51.904;4.256;2023-10-13T01:50:23;101048.75;;;21.10;62.71
48517;BME280;34310;51.904;4.256;2023-10-13T01:52:52;101040.84;;;21.08;62.78
48517;BME280;34310;51.904;4.256;2023-10-13T01:55:18;101026.88;;;21.09;62.91
48517;BME280;34310;51.904;4.256;2023-10-13T01:57:44;101025.13;;;21.10;62.71
48517;BME280;34310;51.904;4.256;2023-10-13T02:00:11;101016.31;;;21.08;62.82
48517;BME280;34310;51.904;4.256;2023-10-13T02:02:38;101013.69;;;21.08;62.77
48517;BME280;34310;51.904;4.256;2023-10-13T02:05:05;100999.69;;;21.07;62.82
48517;BME280;34310;51.904;4.256;2023-10-13T02:07:31;100997.94;;;21.08;62.72
48517;BME280;34310;51.904;4.256;2023-10-13T02:09:58;100994.44;;;21.07;62.79
48517;BME280;34310;51.904;4.256;2023-10-13T02:12:24;101000.56;;;21.08;62.95
48517;BME280;34310;51.904;4.256;2023-10-13T02:14:51;100997.06;;;21.07;62.96
48517;BME280;34310;51.904;4.256;2023-10-13T02:17:17;100990.91;;;21.07;62.82
48517;BME280;34310;51.904;4.256;2023-10-13T02:19:44;100990.03;;;21.06;62.82
48517;BME280;34310;51.904;4.256;2023-10-13T02:22:11;100972.44;;;21.03;62.88
48517;BME280;34310;51.904;4.256;2023-10-13T02:24:38;100963.72;;;21.04;62.76
48517;BME280;34310;51.904;4.256;2023-10-13T02:27:04;100965.50;;;21.06;62.81
48517;BME280;34310;51.904;4.256;2023-10-13T02:29:31;100954.97;;;21.04;62.99
48517;BME280;34310;51.904;4.256;2023-10-13T02:31:57;100945.34;;;21.04;62.93
48517;BME280;34310;51.904;4.256;2023-10-13T02:34:24;100952.34;;;21.04;62.71
48517;BME280;34310;51.904;4.256;2023-10-13T02:36:50;100940.09;;;21.04;63.03
48517;BME280;34310;51.904;4.256;2023-10-13T02:39:18;100946.19;;;21.03;62.77
48517;BME280;34310;51.904;4.256;2023-10-13T02:41:45;100952.34;;;21.04;62.64
48517;BME280;34310;51.904;4.256;2023-10-13T02:44:12;100937.34;;;21.00;62.71
48517;BME280;34310;51.904;4.256;2023-10-13T02:46:38;100935.69;;;21.03;62.82
48517;BME280;34310;51.904;4.256;2023-10-13T02:49:06;100938.31;;;21.03;62.71
48517;BME280;34310;51.904;4.256;2023-10-13T02:51:32;100919.91;;;21.02;62.78
48517;BME280;34310;51.904;4.256;2023-10-13T02:53:59;100926.94;;;21.03;62.64
48517;BME280;34310;51.904;4.256;2023-10-13T02:56:25;100929.56;;;21.03;62.77
48517;BME280;34310;51.904;4.256;2023-10-13T02:58:52;100898.84;;;21.00;62.69
48517;BME280;34310;51.904;4.256;2023-10-13T03:01:20;100893.66;;;21.02;62.95
48517;BME280;34310;51.904;4.256;2023-10-13T03:03:51;100885.78;;;21.02;62.98
48517;BME280;34310;51.904;4.256;2023-10-13T03:06:18;100876.97;;;21.00;62.90
48517;BME280;34310;51.904;4.256;2023-10-13T03:08:45;100873.50;;;21.01;62.98
48517;BME280;34310;51.904;4.256;2023-10-13T03:11:11;100869.13;;;21.01;62.69
48517;BME280;34310;51.904;4.256;2023-10-13T03:13:37;100862.13;;;21.00;62.73
48517;BME280;34310;51.904;4.256;2023-10-13T03:16:12;100852.50;;;21.01;62.94
48517;BME280;34310;51.904;4.256;2023-10-13T03:18:39;100845.50;;;21.01;62.77
48517;BME280;34310;51.904;4.256;2023-10-13T03:21:05;100823.59;;;20.99;62.90
48517;BME280;34310;51.904;4.256;2023-10-13T03:23:32;100815.75;;;21.01;62.64
48517;BME280;34310;51.904;4.256;2023-10-13T03:25:58;100810.47;;;20.99;62.87
48517;BME280;34310;51.904;4.256;2023-10-13T03:28:25;100809.53;;;20.97;63.07
48517;BME280;34310;51.904;4.256;2023-10-13T03:30:51;100807.78;;;20.98;62.91
48517;BME280;34310;51.904;4.256;2023-10-13T03:33:18;100815.72;;;20.99;62.75
48517;BME280;34310;51.904;4.256;2023-10-13T03:35:44;100804.31;;;20.99;62.76
48517;BME280;34310;51.904;4.256;2023-10-13T03:38:11;100795.56;;;20.98;62.71
48517;BME280;34310;51.904;4.256;2023-10-13T03:40:37;100795.56;;;20.98;62.86
48517;BME280;34310;51.904;4.256;2023-10-13T03:43:04;100792.03;;;20.98;62.94
48517;BME280;34310;51.904;4.256;2023-10-13T03:48:03;100772.78;;;20.97;63.02
48517;BME280;34310;51.904;4.256;2023-10-13T03:50:30;100780.66;;;20.97;62.87
48517;BME280;34310;51.904;4.256;2023-10-13T03:52:56;100782.44;;;20.98;62.98
48517;BME280;34310;51.904;4.256;2023-10-13T03:55:24;100768.34;;;20.95;62.77
48517;BME280;34310;51.904;4.256;2023-10-13T03:57:50;100770.13;;;20.96;62.69
48517;BME280;34310;51.904;4.256;2023-10-13T04:00:17;100755.25;;;20.96;63.10
48517;BME280;34310;51.904;4.256;2023-10-13T04:02:43;100775.31;;;20.94;62.64
48517;BME280;34310;51.904;4.256;2023-10-13T04:05:10;100778.88;;;20.96;62.93
48517;BME280;34310;51.904;4.256;2023-10-13T04:07:36;100769.19;;;20.94;62.79
48517;BME280;34310;51.904;4.256;2023-10-13T04:10:03;100763.94;;;20.94;63.06
48517;BME280;34310;51.904;4.256;2023-10-13T04:12:30;100749.97;;;20.95;62.79
48517;BME280;34310;51.904;4.256;2023-10-13T04:14:56;100756.06;;;20.94;63.08
48517;BME280;34310;51.904;4.256;2023-10-13T04:17:23;100744.69;;;20.93;63.01
48517;BME280;34310;51.904;4.256;2023-10-13T04:19:51;100743.84;;;20.94;62.71
48517;BME280;34310;51.904;4.256;2023-10-13T04:22:18;100749.94;;;20.93;63.13
48517;BME280;34310;51.904;4.256;2023-10-13T04:24:47;100746.47;;;20.94;62.98
48517;BME280;34310;51.904;4.256;2023-10-13T04:27:14;100757.84;;;20.95;62.98
48517;BME280;34310;51.904;4.256;2023-10-13T04:29:41;100747.31;;;20.93;62.96
48517;BME280;34310;51.904;4.256;2023-10-13T04:32:07;100740.31;;;20.94;63.05
48517;BME280;34310;51.904;4.256;2023-10-13T04:34:34;100740.28;;;20.92;62.75
48517;BME280;34310;51.904;4.256;2023-10-13T04:37:00;100738.53;;;20.93;63.02
48517;BME280;34310;51.904;4.256;2023-10-13T04:39:27;100741.16;;;20.93;63.08
48517;BME280;34310;51.904;4.256;2023-10-13T04:41:53;100742.91;;;20.92;62.92
48517;BME280;34310;51.904;4.256;2023-10-13T04:44:20;100733.28;;;20.93;62.87
48517;BME280;34310;51.904;4.256;2023-10-13T04:46:46;100732.41;;;20.92;62.87
48517;BME280;34310;51.904;4.256;2023-10-13T04:49:13;100726.28;;;20.92;62.98
48517;BME280;34310;51.904;4.256;2023-10-13T04:51:40;100710.53;;;20.92;62.88
48517;BME280;34310;51.904;4.256;2023-10-13T04:54:06;100700.03;;;20.92;63.11
48517;BME280;34310;51.904;4.256;2023-10-13T04:56:33;100699.97;;;20.90;63.10
48517;BME280;34310;51.904;4.256;2023-10-13T04:58:59;100688.63;;;20.91;62.88
48517;BME280;34310;51.904;4.256;2023-10-13T05:01:25;100686.91;;;20.92;62.88
48517;BME280;34310;51.904;4.256;2023-10-13T05:03:52;100678.13;;;20.91;62.89
48517;BME280;34310;51.904;4.256;2023-10-13T05:06:19;100677.25;;;20.91;62.96
48517;BME280;34310;51.904;4.256;2023-10-13T05:08:46;100664.97;;;20.90;62.83
48517;BME280;34310;51.904;4.256;2023-10-13T05:11:12;100657.09;;;20.90;63.04
48517;BME280;34310;51.904;4.256;2023-10-13T05:13:39;100658.88;;;20.91;62.92
48517;BME280;34310;51.904;4.256;2023-10-13T05:16:05;100650.13;;;20.90;63.03
48517;BME280;34310;51.904;4.256;2023-10-13T05:18:32;100647.41;;;20.87;63.11
48517;BME280;34310;51.904;4.256;2023-10-13T05:20:59;100632.59;;;20.89;62.92
48517;BME280;34310;51.904;4.256;2023-10-13T05:23:25;100640.47;;;20.89;63.07
48517;BME280;34310;51.904;4.256;2023-10-13T05:25:52;100634.34;;;20.89;62.84
48517;BME280;34310;51.904;4.256;2023-10-13T05:28:19;100613.28;;;20.86;62.84
48517;BME280;34310;51.904;4.256;2023-10-13T05:31:00;100626.44;;;20.87;63.00
48517;BME280;34310;51.904;4.256;2023-10-13T05:33:27;100634.34;;;20.89;63.04
48517;BME280;34310;51.904;4.256;2023-10-13T05:35:53;100625.53;;;20.87;63.05
48517;BME280;34310;51.904;4.256;2023-10-13T05:38:20;100623.81;;;20.87;62.78
48517;BME280;34310;51.904;4.256;2023-10-13T05:40:58;100622.94;;;20.88;62.87
48517;BME280;34310;51.904;4.256;2023-10-13T05:43:25;100614.19;;;20.88;62.91
48517;BME280;34310;51.904;4.256;2023-10-13T05:45:51;100616.81;;;20.88;63.19
48517;BME280;34310;51.904;4.256;2023-10-13T05:48:18;100601.91;;;20.87;62.93
48517;BME280;34310;51.904;4.256;2023-10-13T05:50:44;100601.88;;;20.85;62.91
48517;BME280;34310;51.904;4.256;2023-10-13T05:53:11;100601.88;;;20.85;62.84
48517;BME280;34310;51.904;4.256;2023-10-13T05:55:37;100601.03;;;20.86;62.97
48517;BME280;34310;51.904;4.256;2023-10-13T05:58:04;100601.03;;;20.86;62.94
48517;BME280;34310;51.904;4.256;2023-10-13T06:00:30;100588.75;;;20.85;62.87
48517;BME280;34310;51.904;4.256;2023-10-13T06:02:57;100587.88;;;20.85;62.95
48517;BME280;34310;51.904;4.256;2023-10-13T06:05:24;100593.16;;;20.86;63.07
48517;BME280;34310;51.904;4.256;2023-10-13T06:07:50;100600.09;;;20.84;62.87
48517;BME280;34310;51.904;4.256;2023-10-13T06:10:17;100578.28;;;20.85;63.25
48517;BME280;34310;51.904;4.256;2023-10-13T06:12:43;100573.03;;;20.85;63.10
48517;BME280;34310;51.904;4.256;2023-10-13T06:15:10;100557.28;;;20.85;62.86
48517;BME280;34310;51.904;4.256;2023-10-13T06:17:36;100566.88;;;20.85;63.09
48517;BME280;34310;51.904;4.256;2023-10-13T06:20:03;100560.75;;;20.84;63.09
48517;BME280;34310;51.904;4.256;2023-10-13T06:22:30;100560.75;;;20.84;63.03
48517;BME280;34310;51.904;4.256;2023-10-13T06:24:56;100547.63;;;20.84;63.13
48517;BME280;34310;51.904;4.256;2023-10-13T06:27:23;100533.59;;;20.82;63.03
48517;BME280;34310;51.904;4.256;2023-10-13T06:29:49;100524.00;;;20.84;63.02
48517;BME280;34310;51.904;4.256;2023-10-13T06:32:16;100530.16;;;20.85;63.08
48517;BME280;34310;51.904;4.256;2023-10-13T06:34:43;100519.59;;;20.82;62.94
48517;BME280;34310;51.904;4.256;2023-10-13T06:37:09;100519.63;;;20.83;63.22
48517;BME280;34310;51.904;4.256;2023-10-13T06:39:36;100520.50;;;20.84;63.10
48517;BME280;34310;51.904;4.256;2023-10-13T06:42:02;100512.63;;;20.84;63.05
48517;BME280;34310;51.904;4.256;2023-10-13T06:44:29;100509.97;;;20.82;62.94
48517;BME280;34310;51.904;4.256;2023-10-13T06:46:55;100505.66;;;20.84;63.02
48517;BME280;34310;51.904;4.256;2023-10-13T06:49:22;100499.47;;;20.82;63.20
48517;BME280;34310;51.904;4.256;2023-10-13T06:51:49;100499.41;;;20.81;63.20
48517;BME280;34310;51.904;4.256;2023-10-13T06:54:15;100518.66;;;20.81;63.26
48517;BME280;34310;51.904;4.256;2023-10-13T06:56:41;100502.91;;;20.81;63.02
48517;BME280;34310;51.904;4.256;2023-10-13T06:59:08;100496.78;;;20.81;63.21
48517;BME280;34310;51.904;4.256;2023-10-13T07:01:34;100512.53;;;20.81;63.10
48517;BME280;34310;51.904;4.256;2023-10-13T07:04:01;100523.91;;;20.81;63.33
48517;BME280;34310;51.904;4.256;2023-10-13T07:06:28;100528.34;;;20.82;63.10
48517;BME280;34310;51.904;4.256;2023-10-13T07:08:54;100510.84;;;20.83;63.26
48517;BME280;34310;51.904;4.256;2023-10-13T07:11:25;100495.00;;;20.80;63.08
48517;BME280;34310;51.904;4.256;2023-10-13T07:13:51;100500.28;;;20.81;63.28
48517;BME280;34310;51.904;4.256;2023-10-13T07:16:18;100500.28;;;20.81;62.97
48517;BME280;34310;51.904;4.256;2023-10-13T07:18:54;100484.50;;;20.80;63.28
48517;BME280;34310;51.904;4.256;2023-10-13T07:21:20;100490.72;;;20.82;63.35
48517;BME280;34310;51.904;4.256;2023-10-13T07:23:47;100492.38;;;20.80;63.00
48517;BME280;34310;51.904;4.256;2023-10-13T07:26:13;100485.47;;;20.82;63.28
48517;BME280;34310;51.904;4.256;2023-10-13T07:28:40;100485.41;;;20.80;63.25
48517;BME280;34310;51.904;4.256;2023-10-13T07:31:06;100495.97;;;20.82;63.17
48517;BME280;34310;51.904;4.256;2023-10-13T07:33:33;100495.97;;;20.82;63.41
48517;BME280;34310;51.904;4.256;2023-10-13T07:36:02;100503.84;;;20.82;63.12
48517;BME280;34310;51.904;4.256;2023-10-13T07:38:28;100499.38;;;20.79;63.26
48517;BME280;34310;51.904;4.256;2023-10-13T07:40:55;100500.25;;;20.80;63.36
48517;BME280;34310;51.904;4.256;2023-10-13T07:43:21;100490.66;;;20.80;63.26
48517;BME280;34310;51.904;4.256;2023-10-13T07:45:48;100492.41;;;20.81;63.10
48517;BME280;34310;51.904;4.256;2023-10-13T07:48:15;100479.31;;;20.81;63.33
48517;BME280;34310;51.904;4.256;2023-10-13T07:50:41;100481.09;;;20.82;63.32
48517;BME280;34310;51.904;4.256;2023-10-13T07:53:08;100476.69;;;20.81;63.19
48517;BME280;34310;51.904;4.256;2023-10-13T07:55:34;100475.78;;;20.81;63.38
48517;BME280;34310;51.904;4.256;2023-10-13T07:58:01;100467.09;;;20.82;63.33
48517;BME280;34310;51.904;4.256;2023-10-13T08:00:27;100482.84;;;20.82;63.25
48517;BME280;34310;51.904;4.256;2023-10-13T08:03:00;100473.25;;;20.82;63.41
48517;BME280;34310;51.904;4.256;2023-10-13T08:05:27;100466.19;;;20.81;63.25
48517;BME280;34310;51.904;4.256;2023-10-13T08:07:53;100468.88;;;20.83;63.17
48517;BME280;34310;51.904;4.256;2023-10-13T08:10:20;100471.44;;;20.81;63.43
48517;BME280;34310;51.904;4.256;2023-10-13T08:12:46;100459.22;;;20.82;63.35
48517;BME280;34310;51.904;4.256;2023-10-13T08:15:13;100455.69;;;20.81;63.30
48517;BME280;34310;51.904;4.256;2023-10-13T08:17:39;100454.81;;;20.81;63.37
48517;BME280;34310;51.904;4.256;2023-10-13T08:20:06;100452.25;;;20.82;63.42
48517;BME280;34310;51.904;4.256;2023-10-13T08:22:33;100443.50;;;20.82;63.19
48517;BME280;34310;51.904;4.256;2023-10-13T08:24:59;100446.03;;;20.80;63.35
48517;BME280;34310;51.904;4.256;2023-10-13T08:27:26;100451.34;;;20.82;63.57
48517;BME280;34310;51.904;4.256;2023-10-13T08:29:52;100451.34;;;20.82;63.50
48517;BME280;34310;51.904;4.256;2023-10-13T08:32:18;100455.75;;;20.83;63.43
48517;BME280;34310;51.904;4.256;2023-10-13T08:34:47;100446.13;;;20.82;63.21
48517;BME280;34310;51.904;4.256;2023-10-13T08:37:13;100444.41;;;20.84;63.42
48517;BME280;34310;51.904;4.256;2023-10-13T08:39:40;100440.00;;;20.83;63.34
48517;BME280;34310;51.904;4.256;2023-10-13T08:42:06;100440.88;;;20.82;63.49
48517;BME280;34310;51.904;4.256;2023-10-13T08:44:33;100439.94;;;20.81;63.47
48517;BME280;34310;51.904;4.256;2023-10-13T08:47:03;100446.13;;;20.82;63.49
48517;BME280;34310;51.904;4.256;2023-10-13T08:49:30;100432.03;;;20.80;63.51
48517;BME280;34310;51.904;4.256;2023-10-13T08:51:58;100442.56;;;20.81;63.59
48517;BME280;34310;51.904;4.256;2023-10-13T08:54:26;100437.38;;;20.83;63.47
48517;BME280;34310;51.904;4.256;2023-10-13T08:56:54;100420.75;;;20.82;63.19
48517;BME280;34310;51.904;4.256;2023-10-13T08:59:20;100405.91;;;20.83;63.47
48517;BME280;34310;51.904;4.256;2023-10-13T09:01:47;100409.38;;;20.82;63.72
48517;BME280;34310;51.904;4.256;2023-10-13T09:04:15;100409.38;;;20.82;63.54
48517;BME280;34310;51.904;4.256;2023-10-13T09:06:47;100413.78;;;20.83;63.13
48517;BME280;34310;51.904;4.256;2023-10-13T09:09:13;100405.06;;;20.84;63.53
48517;BME280;34310;51.904;4.256;2023-10-13T09:11:40;100406.78;;;20.83;63.37
48517;BME280;34310;51.904;4.256;2023-10-13T09:14:13;100403.31;;;20.84;63.56
48517;BME280;34310;51.904;4.256;2023-10-13T09:16:39;100395.41;;;20.83;63.25
48517;BME280;34310;51.904;4.256;2023-10-13T09:19:06;100393.56;;;20.80;63.55
48517;BME280;34310;51.904;4.256;2023-10-13T09:21:39;100387.56;;;20.84;63.31
48517;BME280;34310;51.904;4.256;2023-10-13T09:24:10;100391.94;;;20.84;63.23
48517;BME280;34310;51.904;4.256;2023-10-13T09:26:37;100371.72;;;20.81;63.48
48517;BME280;34310;51.904;4.256;2023-10-13T09:29:14;100377.97;;;20.85;63.55
48517;BME280;34310;51.904;4.256;2023-10-13T09:31:41;100367.47;;;20.85;63.36
48517;BME280;34310;51.904;4.256;2023-10-13T09:34:07;100363.94;;;20.84;63.40
48517;BME280;34310;51.904;4.256;2023-10-13T09:36:34;100364.84;;;20.85;63.73
48517;BME280;34310;51.904;4.256;2023-10-13T09:39:00;100370.09;;;20.85;63.68
48517;BME280;34310;51.904;4.256;2023-10-13T09:41:28;100363.94;;;20.84;63.41
48517;BME280;34310;51.904;4.256;2023-10-13T09:43:55;100371.84;;;20.86;63.72
48517;BME280;34310;51.904;4.256;2023-10-13T09:46:22;100361.34;;;20.86;63.30
48517;BME280;34310;51.904;4.256;2023-10-13T09:48:49;100356.97;;;20.85;63.59
48517;BME280;34310;51.904;4.256;2023-10-13T09:51:16;100351.72;;;20.85;63.55
48517;BME280;34310;51.904;4.256;2023-10-13T09:53:48;100357.84;;;20.85;63.79
48517;BME280;34310;51.904;4.256;2023-10-13T09:56:50;100347.34;;;20.85;63.38
48517;BME280;34310;51.904;4.256;2023-10-13T09:59:22;100343.00;;;20.86;63.68
48517;BME280;34310;51.904;4.256;2023-10-13T10:01:49;100343.88;;;20.86;63.80
48517;BME280;34310;51.904;4.256;2023-10-13T10:04:18;100332.50;;;20.86;63.54
48517;BME280;34310;51.904;4.256;2023-10-13T10:09:19;100330.75;;;20.86;63.59
48517;BME280;34310;51.904;4.256;2023-10-13T10:12:04;100345.66;;;20.87;63.50
48517;BME280;34310;51.904;4.256;2023-10-13T10:17:43;100341.31;;;20.89;63.45
48517;BME280;34310;51.904;4.256;2023-10-13T10:20:10;100332.53;;;20.87;63.76
48517;BME280;34310;51.904;4.256;2023-10-13T10:22:36;100336.91;;;20.88;63.90
48517;BME280;34310;51.904;4.256;2023-10-13T10:25:04;100325.53;;;20.88;63.59
48517;BME280;34310;51.904;4.256;2023-10-13T10:27:31;100322.03;;;20.87;63.82
48517;BME280;34310;51.904;4.256;2023-10-13T10:29:58;100318.59;;;20.90;63.80
48517;BME280;34310;51.904;4.256;2023-10-13T10:35:08;100317.69;;;20.89;63.72
48517;BME280;34310;51.904;4.256;2023-10-13T10:37:36;100309.81;;;20.89;63.81
48517;BME280;34310;51.904;4.256;2023-10-13T10:40:08;100326.44;;;20.88;63.74
48517;BME280;34310;51.904;4.256;2023-10-13T10:42:35;100313.38;;;20.91;63.43
48517;BME280;34310;51.904;4.256;2023-10-13T10:45:02;100294.09;;;20.91;63.68
48517;BME280;34310;51.904;4.256;2023-10-13T10:47:34;100293.25;;;20.92;63.63
48517;BME280;34310;51.904;4.256;2023-10-13T10:50:01;100292.34;;;20.90;63.66
48517;BME280;34310;51.904;4.256;2023-10-13T10:52:27;100298.53;;;20.93;63.91
48517;BME280;34310;51.904;4.256;2023-10-13T10:55:00;100295.03;;;20.93;63.59
48517;BME280;34310;51.904;4.256;2023-10-13T10:57:26;100304.63;;;20.92;63.53
48517;BME280;34310;51.904;4.256;2023-10-13T10:59:53;100300.28;;;20.93;63.60
48517;BME280;34310;51.904;4.256;2023-10-13T11:02:30;100300.31;;;20.94;63.57
48517;BME280;34310;51.904;4.256;2023-10-13T11:04:56;100299.41;;;20.94;63.89
48517;BME280;34310;51.904;4.256;2023-10-13T11:07:23;100288.03;;;20.93;63.95
48517;BME280;34310;51.904;4.256;2023-10-13T11:09:50;100290.69;;;20.95;63.90
48517;BME280;34310;51.904;4.256;2023-10-13T11:12:17;100280.03;;;20.87;63.59
48517;BME280;34310;51.904;4.256;2023-10-13T11:14:45;100293.31;;;20.95;63.49
48517;BME280;34310;51.904;4.256;2023-10-13T11:17:18;100296.81;;;20.95;63.84
48517;BME280;34310;51.904;4.256;2023-10-13T11:19:45;100291.59;;;20.97;63.90
48517;BME280;34310;51.904;4.256;2023-10-13T11:24:42;100299.44;;;20.95;63.93
48517;BME280;34310;51.904;4.256;2023-10-13T11:27:15;100288.03;;;20.93;63.76
48517;BME280;34310;51.904;4.256;2023-10-13T11:29:42;100293.34;;;20.96;63.88
48517;BME280;34310;51.904;4.256;2023-10-13T11:32:08;100296.84;;;20.97;63.77
48517;BME280;34310;51.904;4.256;2023-10-13T11:34:35;100290.72;;;20.96;63.80
48517;BME280;34310;51.904;4.256;2023-10-13T11:37:01;100290.69;;;20.95;63.84
48517;BME280;34310;51.904;4.256;2023-10-13T11:39:28;100296.88;;;20.98;63.98
48517;BME280;34310;51.904;4.256;2023-10-13T11:41:54;100296.88;;;20.98;63.95
48517;BME280;34310;51.904;4.256;2023-10-13T11:44:21;100300.38;;;20.99;63.70
48517;BME280;34310;51.904;4.256;2023-10-13T11:46:48;100299.50;;;20.98;63.80
48517;BME280;34310;51.904;4.256;2023-10-13T11:49:15;100293.38;;;20.98;63.86
48517;BME280;34310;51.904;4.256;2023-10-13T11:51:46;100296.03;;;20.99;63.56
48517;BME280;34310;51.904;4.256;2023-10-13T11:54:17;100289.88;;;20.99;63.68
48517;BME280;34310;51.904;4.256;2023-10-13T11:56:45;100291.63;;;20.98;63.71
48517;BME280;34310;51.904;4.256;2023-10-13T11:59:12;100280.25;;;20.98;63.72
48517;BME280;34310;51.904;4.256;2023-10-13T12:01:38;100283.75;;;20.98;63.71
48517;BME280;34310;51.904;4.256;2023-10-13T12:04:05;100281.13;;;20.98;63.62
48517;BME280;34310;51.904;4.256;2023-10-13T12:06:33;100277.66;;;20.99;63.95
48517;BME280;34310;51.904;4.256;2023-10-13T12:09:00;100274.16;;;21.00;63.78
48517;BME280;34310;51.904;4.256;2023-10-13T12:11:26;100289.03;;;21.00;63.84
48517;BME280;34310;51.904;4.256;2023-10-13T12:13:53;100266.31;;;21.00;63.70
48517;BME280;34310;51.904;4.256;2023-10-13T12:16:20;100274.16;;;20.99;63.75
48517;BME280;34310;51.904;4.256;2023-10-13T12:18:47;100267.22;;;21.02;63.84
48517;BME280;34310;51.904;4.256;2023-10-13T12:21:14;100262.81;;;21.01;63.84
48517;BME280;34310;51.904;4.256;2023-10-13T12:23:40;100255.81;;;21.02;63.95
48517;BME280;34310;51.904;4.256;2023-10-13T12:26:08;100261.06;;;21.02;63.78
48517;BME280;34310;51.904;4.256;2023-10-13T12:28:34;100260.19;;;21.01;63.68
48517;BME280;34310;51.904;4.256;2023-10-13T12:31:04;100255.81;;;21.02;63.85
48517;BME280;34310;51.904;4.256;2023-10-13T12:33:30;100257.56;;;21.01;63.92
48517;BME280;34310;51.904;4.256;2023-10-13T12:35:57;100261.06;;;21.02;63.79
48517;BME280;34310;51.904;4.256;2023-10-13T12:38:24;100253.19;;;21.00;63.77
48517;BME280;34310;51.904;4.256;2023-10-13T12:40:50;100259.34;;;21.02;63.65
48517;BME280;34310;51.904;4.256;2023-10-13T12:43:17;100243.56;;;21.01;63.92
48517;BME280;34310;51.904;4.256;2023-10-13T12:45:46;100241.84;;;21.03;63.86
48517;BME280;34310;51.904;4.256;2023-10-13T12:48:12;100234.84;;;21.03;63.80
48517;BME280;34310;51.904;4.256;2023-10-13T12:50:39;100229.59;;;21.02;63.89
48517;BME280;34310;51.904;4.256;2023-10-13T12:53:05;100226.97;;;21.02;63.86
48517;BME280;34310;51.904;4.256;2023-10-13T12:55:32;100233.13;;;21.04;63.89
48517;BME280;34310;51.904;4.256;2023-10-13T12:57:58;100233.97;;;21.03;63.73
48517;BME280;34310;51.904;4.256;2023-10-13T13:00:25;100226.09;;;21.03;64.00
48517;BME280;34310;51.904;4.256;2023-10-13T13:02:51;100232.22;;;21.03;63.81
48517;BME280;34310;51.904;4.256;2023-10-13T13:05:18;100248.88;;;21.04;63.86